createdAt,value
2023-01-07T00:01:43.341Z,101415.75
2023-01-07T00:04:14.972Z,101425.72
2023-01-07T00:06:43.561Z,101412.03
2023-01-07T00:09:16.343Z,101416.13
2023-01-07T00:11:42.823Z,101410.19
2023-01-07T00:14:10.983Z,101406.78
2023-01-07T00:16:37.504Z,101410.94
2023-01-07T00:19:05.300Z,101406.50
2023-01-07T00:21:32.641Z,101405.97
2023-01-07T00:24:04.502Z,101409.13
2023-01-07T00:26:33.256Z,101406.41
2023-01-07T00:29:00.389Z,101414.34
2023-01-07T00:31:32.735Z,101408.16
2023-01-07T00:33:59.613Z,101398.81
2023-01-07T00:36:31.395Z,101397.41
2023-01-07T00:39:03.779Z,101387.97
2023-01-07T00:41:30.236Z,101394.94
2023-01-07T00:43:56.798Z,101392.00
2023-01-07T00:46:23.501Z,101398.56
2023-01-07T00:48:50.195Z,101407.38
2023-01-07T00:51:17.940Z,101407.53
2023-01-07T00:53:44.378Z,101406.06
2023-01-07T00:56:12.182Z,101398.84
2023-01-07T00:58:38.616Z,101400.75
2023-01-07T01:01:05.265Z,101406.06
2023-01-07T01:03:32.633Z,101400.03
2023-01-07T01:06:14.703Z,101393.97
2023-01-07T01:08:43.061Z,101390.94
2023-01-07T01:11:10.554Z,101382.94
2023-01-07T01:13:38.803Z,101372.72
2023-01-07T01:16:10.706Z,101371.94
2023-01-07T01:18:38.071Z,101362.09
2023-01-07T01:21:06.027Z,101369.66
2023-01-07T01:23:32.533Z,101362.09
2023-01-07T01:26:03.837Z,101356.78
2023-01-07T01:28:30.409Z,101368.53
2023-01-07T01:30:56.946Z,101378.44
2023-01-07T01:33:23.324Z,101381.09
2023-01-07T01:35:49.701Z,101388.66
2023-01-07T01:38:16.087Z,101381.09
2023-01-07T01:40:42.491Z,101390.19
2023-01-07T01:43:29.102Z,101380.34
2023-01-07T01:45:55.789Z,101375.81
2023-01-07T01:48:22.510Z,101376.19
2023-01-07T01:50:50.167Z,101379.63
2023-01-07T01:53:26.666Z,101372.75
2023-01-07T01:55:59.878Z,101378.47
2023-01-07T01:58:35.796Z,101377.31
2023-01-07T02:01:02.359Z,101377.72
2023-01-07T02:03:30.567Z,101375.81
2023-01-07T02:05:57.114Z,101373.53
2023-01-07T02:08:23.702Z,101376.19
2023-01-07T02:11:21.234Z,101375.81
2023-01-07T02:14:02.650Z,101376.56
2023-01-07T02:17:11.916Z,101374.28
2023-01-07T02:19:59.463Z,101368.22
2023-01-07T02:22:57.430Z,101353.00
2023-01-07T02:25:37.197Z,101362.91
2023-01-07T02:28:31.637Z,101362.91
2023-01-07T02:31:35.592Z,101346.19
2023-01-07T02:34:14.606Z,101350.72
2023-01-07T02:36:46.141Z,101353.38
2023-01-07T02:39:25.503Z,101359.09
2023-01-07T02:42:00.166Z,101354.50
2023-01-07T02:44:45.540Z,101346.16
2023-01-07T02:47:17.081Z,101338.56
2023-01-07T02:49:43.573Z,101331.75
2023-01-07T02:52:24.925Z,101330.19
2023-01-07T02:55:06.233Z,101313.44
2023-01-07T02:58:05.582Z,101311.53
2023-01-07T03:00:39.169Z,101313.09
2023-01-07T03:03:15.472Z,101313.06
2023-01-07T03:05:47.908Z,101315.34
2023-01-07T03:08:39.517Z,101309.25
2023-01-07T03:11:08.279Z,101308.84
2023-01-07T03:13:59.511Z,101311.53
2023-01-07T03:16:31.304Z,101310.00
2023-01-07T03:19:01.469Z,101308.88
2023-01-07T03:21:28.389Z,101307.34
2023-01-07T03:23:56.217Z,101303.91
2023-01-07T03:26:26.188Z,101305.03
2023-01-07T03:28:53.264Z,101302.75
2023-01-07T03:31:20.888Z,101311.84
2023-01-07T03:33:56.896Z,101299.31
2023-01-07T03:36:28.125Z,101301.59
2023-01-07T03:38:55.138Z,101298.91
2023-01-07T03:41:40.146Z,101292.81
2023-01-07T03:44:06.614Z,101294.66
2023-01-07T03:46:34.146Z,101289.72
2023-01-07T03:49:00.555Z,101288.97
2023-01-07T03:51:26.956Z,101292.72
2023-01-07T03:53:53.377Z,101293.47
2023-01-07T03:56:19.900Z,101291.94
2023-01-07T03:58:46.316Z,101288.53
2023-01-07T04:01:12.825Z,101290.00
2023-01-07T04:03:39.271Z,101288.50
2023-01-07T04:06:05.744Z,101287.72
2023-01-07T04:08:32.337Z,101278.94
2023-01-07T04:10:58.777Z,101282.00
2023-01-07T04:13:25.185Z,101285.84
2023-01-07T04:15:51.656Z,101276.28
2023-01-07T04:18:18.057Z,101278.16
2023-01-07T04:20:48.197Z,101277.78
2023-01-07T04:23:15.583Z,101272.06
2023-01-07T04:25:42.101Z,101275.03
2023-01-07T04:28:08.586Z,101265.13
2023-01-07T04:30:35.506Z,101260.94
2023-01-07T04:33:01.968Z,101252.88
2023-01-07T04:35:28.401Z,101257.50
2023-01-07T04:37:54.797Z,101262.47
2023-01-07T04:40:21.184Z,101258.97
2023-01-07T04:42:47.563Z,101258.97
2023-01-07T04:45:14.015Z,101247.56
2023-01-07T04:47:40.459Z,101256.75
2023-01-07T04:50:07.498Z,101254.47
2023-01-07T04:52:33.892Z,101251.38
2023-01-07T04:55:00.306Z,101250.66
2023-01-07T04:57:26.705Z,101243.88
2023-01-07T04:59:53.157Z,101255.19
2023-01-07T05:02:19.770Z,101246.84
2023-01-07T05:04:47.164Z,101254.41
2023-01-07T05:07:13.702Z,101244.88
2023-01-07T05:09:40.161Z,101248.31
2023-01-07T05:12:06.733Z,101252.88
2023-01-07T05:14:33.158Z,101237.00
2023-01-07T05:16:59.608Z,101233.09
2023-01-07T05:19:26.028Z,101240.25
2023-01-07T05:21:52.438Z,101237.66
2023-01-07T05:24:18.830Z,101232.31
2023-01-07T05:26:45.237Z,101230.00
2023-01-07T05:29:11.688Z,101230.41
2023-01-07T05:31:38.129Z,101236.13
2023-01-07T05:34:04.589Z,101232.66
2023-01-07T05:36:31.004Z,101233.06
2023-01-07T05:38:58.295Z,101231.97
2023-01-07T05:41:24.689Z,101235.78
2023-01-07T05:43:51.213Z,101233.53
2023-01-07T05:46:17.791Z,101242.63
2023-01-07T05:48:44.449Z,101240.00
2023-01-07T05:51:10.833Z,101236.53
2023-01-07T05:53:37.278Z,101235.84
2023-01-07T05:56:03.854Z,101239.94
2023-01-07T05:58:30.313Z,101238.41
2023-01-07T06:00:56.781Z,101239.25
2023-01-07T06:03:23.298Z,101231.97
2023-01-07T06:05:49.953Z,101236.53
2023-01-07T06:08:16.354Z,101236.91
2023-01-07T06:10:42.843Z,101236.53
2023-01-07T06:13:09.236Z,101244.50
2023-01-07T06:15:35.706Z,101248.97
2023-01-07T06:18:02.286Z,101237.53
2023-01-07T06:20:29.757Z,101239.03
2023-01-07T06:22:56.169Z,101241.06
2023-01-07T06:25:22.666Z,101247.50
2023-01-07T06:27:49.054Z,101240.66
2023-01-07T06:30:15.464Z,101235.63
2023-01-07T06:32:43.539Z,101230.69
2023-01-07T06:35:11.362Z,101232.28
2023-01-07T06:37:38.153Z,101234.63
2023-01-07T06:40:05.278Z,101229.31
2023-01-07T06:42:31.672Z,101234.69
2023-01-07T06:44:58.143Z,101230.19
2023-01-07T06:47:25.356Z,101221.81
2023-01-07T06:49:52.444Z,101230.91
2023-01-07T06:52:18.852Z,101230.97
2023-01-07T06:54:47.541Z,101219.53
2023-01-07T06:57:14.744Z,101227.91
2023-01-07T06:59:41.294Z,101225.66
2023-01-07T07:02:07.853Z,101228.69
2023-01-07T07:04:34.335Z,101226.78
2023-01-07T07:07:00.732Z,101221.16
2023-01-07T07:09:27.174Z,101219.66
2023-01-07T07:11:53.576Z,101216.22
2023-01-07T07:14:19.968Z,101217.72
2023-01-07T07:16:46.345Z,101218.06
2023-01-07T07:19:12.847Z,101221.13
2023-01-07T07:21:39.246Z,101216.56
2023-01-07T07:24:05.716Z,101215.03
2023-01-07T07:26:32.173Z,101222.25
2023-01-07T07:28:58.591Z,101220.78
2023-01-07T07:31:25.082Z,101222.72
2023-01-07T07:33:51.485Z,101212.81
2023-01-07T07:36:17.882Z,101214.38
2023-01-07T07:38:44.280Z,101205.25
2023-01-07T07:41:10.655Z,101213.63
2023-01-07T07:43:37.101Z,101204.84
2023-01-07T07:46:04.182Z,101211.75
2023-01-07T07:48:30.634Z,101210.19
2023-01-07T07:50:59.729Z,101201.88
2023-01-07T07:53:26.433Z,101198.81
2023-01-07T07:55:53.370Z,101196.91
2023-01-07T07:58:19.911Z,101190.53
2023-01-07T08:00:46.392Z,101191.31
2023-01-07T08:03:12.866Z,101195.09
2023-01-07T08:05:41.612Z,101200.06
2023-01-07T08:08:11.447Z,101203.16
2023-01-07T08:10:38.399Z,101195.56
2023-01-07T08:13:05.150Z,101191.75
2023-01-07T08:15:31.581Z,101196.31
2023-01-07T08:18:09.069Z,101198.22
2023-01-07T08:20:36.771Z,101198.56
2023-01-07T08:23:05.312Z,101203.84
2023-01-07T08:25:32.327Z,101200.38
2023-01-07T08:27:59.806Z,101195.34
2023-01-07T08:30:26.513Z,101197.25
2023-01-07T08:32:53.093Z,101196.06
2023-01-07T08:35:19.622Z,101195.31
2023-01-07T08:37:46.004Z,101193.75
2023-01-07T08:40:13.525Z,101193.69
2023-01-07T08:42:40.350Z,101205.00
2023-01-07T08:45:08.457Z,101203.47
2023-01-07T08:47:35.277Z,101193.50
2023-01-07T08:50:01.845Z,101190.81
2023-01-07T08:52:28.310Z,101189.69
2023-01-07T08:54:54.708Z,101188.19
2023-01-07T08:57:21.147Z,101193.50
2023-01-07T08:59:47.792Z,101182.13
2023-01-07T09:02:15.980Z,101195.06
2023-01-07T09:04:42.511Z,101191.31
2023-01-07T09:07:09.825Z,101187.09
2023-01-07T09:09:36.826Z,101193.22
2023-01-07T09:12:04.465Z,101192.81
2023-01-07T09:14:30.960Z,101180.25
2023-01-07T09:16:57.373Z,101176.09
2023-01-07T09:19:23.906Z,101180.66
2023-01-07T09:21:51.367Z,101176.44
2023-01-07T09:24:18.113Z,101176.06
2023-01-07T09:26:44.561Z,101163.53
2023-01-07T09:29:11.043Z,101172.34
2023-01-07T09:31:37.533Z,101169.72
2023-01-07T09:34:03.944Z,101167.75
2023-01-07T09:36:30.468Z,101170.38
2023-01-07T09:38:56.929Z,101171.81
2023-01-07T09:41:32.242Z,101170.97
2023-01-07T09:44:08.850Z,101168.16
2023-01-07T09:46:35.434Z,101170.00
2023-01-07T09:49:02.888Z,101162.25
2023-01-07T09:51:38.577Z,101162.13
2023-01-07T09:54:06.756Z,101161.84
2023-01-07T09:56:34.703Z,101164.97
2023-01-07T09:59:01.861Z,101163.53
2023-01-07T10:01:51.115Z,101154.31
2023-01-07T10:04:26.474Z,101157.66
2023-01-07T10:07:27.806Z,101154.16
2023-01-07T10:09:54.279Z,101159.84
2023-01-07T10:12:32.842Z,101154.88
2023-01-07T10:15:57.735Z,101148.84
2023-01-07T10:18:27.080Z,101148.44
2023-01-07T10:21:21.198Z,101138.91
2023-01-07T10:23:59.247Z,101144.09
2023-01-07T10:26:33.227Z,101133.38
2023-01-07T10:29:05.044Z,101140.91
2023-01-07T10:31:32.756Z,101134.34
2023-01-07T10:33:59.550Z,101134.72
2023-01-07T10:36:28.919Z,101132.38
2023-01-07T10:39:16.618Z,101129.09
2023-01-07T10:42:11.896Z,101122.47
2023-01-07T10:44:56.732Z,101107.41
2023-01-07T10:47:29.645Z,101114.13
2023-01-07T10:50:17.335Z,101109.88
2023-01-07T10:52:43.782Z,101102.28
2023-01-07T10:55:28.284Z,101113.31
2023-01-07T10:57:54.702Z,101093.44
2023-01-07T11:00:21.397Z,101092.53
2023-01-07T11:02:55.355Z,101087.94
2023-01-07T11:05:22.917Z,101093.13
2023-01-07T11:08:01.167Z,101084.06
2023-01-07T11:10:33.750Z,101086.69
2023-01-07T11:13:04.961Z,101076.34
2023-01-07T11:15:34.949Z,101077.09
2023-01-07T11:18:11.776Z,101071.53
2023-01-07T11:20:59.187Z,101058.22
2023-01-07T11:23:30.404Z,101055.19
2023-01-07T11:26:18.155Z,101057.97
2023-01-07T11:28:58.870Z,101050.28
2023-01-07T11:31:46.807Z,101046.41
2023-01-07T11:34:25.108Z,101043.34
2023-01-07T11:36:51.846Z,101048.66
2023-01-07T11:39:32.910Z,101047.53
2023-01-07T11:42:38.028Z,101035.22
2023-01-07T11:45:16.734Z,101031.94
2023-01-07T11:48:08.309Z,101032.66
2023-01-07T11:50:52.970Z,101018.53
2023-01-07T11:53:19.317Z,101014.25
2023-01-07T11:56:13.704Z,101014.22
2023-01-07T11:58:42.352Z,101012.09
2023-01-07T12:01:08.827Z,101007.19
2023-01-07T12:03:36.716Z,101001.38
2023-01-07T12:06:07.936Z,101000.25
2023-01-07T12:08:34.784Z,100992.97
2023-01-07T12:11:08.726Z,100983.31
2023-01-07T12:13:35.756Z,100990.06
2023-01-07T12:16:04.787Z,100986.13
2023-01-07T12:18:52.944Z,100971.59
2023-01-07T12:21:35.537Z,100973.09
2023-01-07T12:24:18.297Z,100968.81
2023-01-07T12:26:56.931Z,100962.31
2023-01-07T12:29:38.565Z,100951.75
2023-01-07T12:32:14.128Z,100950.59
2023-01-07T12:35:15.153Z,100947.16
2023-01-07T12:37:45.951Z,100939.31
2023-01-07T12:40:18.586Z,100943.06
2023-01-07T12:42:51.116Z,100932.53
2023-01-07T12:45:23.020Z,100936.69
2023-01-07T12:47:54.399Z,100920.28
2023-01-07T12:50:29.849Z,100913.59
2023-01-07T12:53:05.900Z,100907.41
2023-01-07T12:55:37.538Z,100902.91
2023-01-07T12:58:18.894Z,100891.84
2023-01-07T13:00:52.047Z,100895.38
2023-01-07T13:03:19.258Z,100895.28
2023-01-07T13:05:53.307Z,100887.78
2023-01-07T13:08:31.901Z,100893.72
2023-01-07T13:11:03.664Z,100886.09
2023-01-07T13:13:34.571Z,100888.25
2023-01-07T13:16:01.029Z,100880.00
2023-01-07T13:18:29.314Z,100883.81
2023-01-07T13:21:06.852Z,100882.34
2023-01-07T13:23:48.554Z,100875.50
2023-01-07T13:26:25.461Z,100874.34
2023-01-07T13:29:08.169Z,100863.66
2023-01-07T13:31:43.738Z,100874.69
2023-01-07T13:34:50.239Z,100857.09
2023-01-07T13:37:38.908Z,100861.56
2023-01-07T13:40:49.784Z,100859.22
2023-01-07T13:43:45.433Z,100847.19
2023-01-07T13:46:14.881Z,100848.41
2023-01-07T13:48:50.334Z,100848.50
2023-01-07T13:51:26.511Z,100847.66
2023-01-07T13:53:52.928Z,100845.28
2023-01-07T13:56:19.369Z,100834.03
2023-01-07T13:58:47.552Z,100826.69
2023-01-07T14:01:15.155Z,100824.69
2023-01-07T14:03:45.563Z,100822.13
2023-01-07T14:06:21.144Z,100815.38
2023-01-07T14:09:00.313Z,100817.34
2023-01-07T14:11:29.640Z,100807.69
2023-01-07T14:14:21.958Z,100807.47
2023-01-07T14:16:56.826Z,100798.50
2023-01-07T14:19:46.331Z,100797.16
2023-01-07T14:22:30.814Z,100804.91
2023-01-07T14:25:25.155Z,100792.44
2023-01-07T14:28:12.738Z,100783.75
2023-01-07T14:30:47.425Z,100781.56
2023-01-07T14:33:27.853Z,100776.28
2023-01-07T14:35:59.938Z,100771.47
2023-01-07T14:38:31.759Z,100765.09
2023-01-07T14:41:04.483Z,100762.19
2023-01-07T14:43:43.603Z,100755.13
2023-01-07T14:46:22.326Z,100753.34
2023-01-07T14:48:58.083Z,100756.09
2023-01-07T14:52:02.284Z,100751.25
2023-01-07T14:55:05.040Z,100755.41
2023-01-07T14:57:52.320Z,100748.31
2023-01-07T15:00:42.016Z,100745.75
2023-01-07T15:03:48.025Z,100744.69
2023-01-07T15:06:28.129Z,100743.25
2023-01-07T15:09:33.024Z,100744.75
2023-01-07T15:12:22.302Z,100747.94
2023-01-07T15:15:07.768Z,100744.25
2023-01-07T15:17:34.633Z,100740.88
2023-01-07T15:20:04.984Z,100734.50
2023-01-07T15:22:47.725Z,100728.56
2023-01-07T15:25:32.929Z,100728.91
2023-01-07T15:28:18.034Z,100722.47
2023-01-07T15:30:52.836Z,100725.44
2023-01-07T15:33:34.705Z,100714.69
2023-01-07T15:36:03.518Z,100713.13
2023-01-07T15:38:50.374Z,100697.09
2023-01-07T15:41:37.167Z,100702.03
2023-01-07T15:44:05.871Z,100707.44
2023-01-07T15:46:33.557Z,100704.03
2023-01-07T15:49:26.665Z,100695.63
2023-01-07T15:51:58.550Z,100686.47
2023-01-07T15:54:28.984Z,100683.88
2023-01-07T15:56:59.424Z,100681.56
2023-01-07T15:59:29.162Z,100678.13
2023-01-07T16:02:17.457Z,100667.94
2023-01-07T16:04:45.810Z,100663.81
2023-01-07T16:07:33.963Z,100659.34
2023-01-07T16:10:03.341Z,100656.41
2023-01-07T16:12:35.551Z,100647.41
2023-01-07T16:15:21.155Z,100645.13
2023-01-07T16:17:52.765Z,100645.16
2023-01-07T16:20:22.295Z,100645.94
2023-01-07T16:22:49.808Z,100647.81
2023-01-07T16:25:21.855Z,100640.63
2023-01-07T16:27:48.850Z,100637.72
2023-01-07T16:30:15.915Z,100632.78
2023-01-07T16:32:44.266Z,100629.47
2023-01-07T16:35:21.659Z,100632.53
2023-01-07T16:37:49.328Z,100637.06
2023-01-07T16:40:21.697Z,100635.56
2023-01-07T16:42:49.957Z,100648.13
2023-01-07T16:45:28.654Z,100635.16
2023-01-07T16:48:22.100Z,100629.47
2023-01-07T16:50:50.104Z,100629.25
2023-01-07T16:53:32.557Z,100619.06
2023-01-07T16:56:02.000Z,100621.34
2023-01-07T16:58:42.116Z,100608.53
2023-01-07T17:01:09.695Z,100603.97
2023-01-07T17:03:54.850Z,100611.94
2023-01-07T17:06:28.985Z,100608.94
2023-01-07T17:08:56.509Z,100600.38
2023-01-07T17:11:36.113Z,100595.00
2023-01-07T17:14:25.521Z,100588.13
2023-01-07T17:17:02.243Z,100590.00
2023-01-07T17:19:36.455Z,100568.50
2023-01-07T17:22:03.909Z,100571.50
2023-01-07T17:24:30.483Z,100570.84
2023-01-07T17:26:59.120Z,100576.50
2023-01-07T17:29:35.016Z,100571.63
2023-01-07T17:32:01.654Z,100577.72
2023-01-07T17:34:29.450Z,100559.50
2023-01-07T17:36:56.457Z,100569.69
2023-01-07T17:39:25.478Z,100564.16
2023-01-07T17:42:11.368Z,100559.69
2023-01-07T17:44:37.966Z,100548.31
2023-01-07T17:47:06.199Z,100541.53
2023-01-07T17:49:32.862Z,100546.44
2023-01-07T17:51:59.376Z,100542.25
2023-01-07T17:54:25.888Z,100537.72
2023-01-07T17:56:52.704Z,100535.16
2023-01-07T17:59:21.871Z,100534.00
2023-01-07T18:01:48.703Z,100528.78
2023-01-07T18:04:15.215Z,100532.56
2023-01-07T18:06:42.545Z,100536.00
2023-01-07T18:09:10.549Z,100535.59
2023-01-07T18:12:00.236Z,100535.56
2023-01-07T18:14:26.958Z,100539.78
2023-01-07T18:16:53.543Z,100540.88
2023-01-07T18:19:20.266Z,100548.50
2023-01-07T18:21:46.989Z,100546.22
2023-01-07T18:24:19.640Z,100544.00
2023-01-07T18:26:46.713Z,100544.03
2023-01-07T18:29:14.163Z,100531.91
2023-01-07T18:31:43.253Z,100530.81
2023-01-07T18:34:10.869Z,100529.72
2023-01-07T18:36:37.627Z,100525.91
2023-01-07T18:39:05.571Z,100519.09
2023-01-07T18:41:33.666Z,100512.66
2023-01-07T18:44:00.155Z,100520.63
2023-01-07T18:46:26.935Z,100522.94
2023-01-07T18:48:53.361Z,100536.63
2023-01-07T18:51:19.802Z,100524.53
2023-01-07T18:53:46.357Z,100521.88
2023-01-07T18:56:13.126Z,100526.38
2023-01-07T18:58:39.621Z,100525.25
2023-01-07T19:01:07.363Z,100521.47
2023-01-07T19:03:34.232Z,100515.78
2023-01-07T19:06:05.783Z,100511.97
2023-01-07T19:08:32.252Z,100513.81
2023-01-07T19:10:58.718Z,100513.81
2023-01-07T19:13:25.276Z,100507.34
2023-01-07T19:15:51.739Z,100497.88
2023-01-07T19:18:18.211Z,100499.03
2023-01-07T19:20:44.794Z,100497.91
2023-01-07T19:23:11.195Z,100492.59
2023-01-07T19:25:37.833Z,100488.41
2023-01-07T19:28:04.476Z,100488.41
2023-01-07T19:30:31.028Z,100493.34
2023-01-07T19:32:58.764Z,100488.38
2023-01-07T19:35:26.671Z,100479.31
2023-01-07T19:37:53.099Z,100482.28
2023-01-07T19:40:19.616Z,100478.09
2023-01-07T19:42:47.732Z,100462.91
2023-01-07T19:45:14.198Z,100458.66
2023-01-07T19:47:41.227Z,100458.22
2023-01-07T19:50:08.253Z,100449.84
2023-01-07T19:52:34.945Z,100446.44
2023-01-07T19:55:01.363Z,100434.63
2023-01-07T19:57:28.932Z,100430.06
2023-01-07T19:59:55.396Z,100428.16
2023-01-07T20:02:21.951Z,100414.88
2023-01-07T20:04:58.417Z,100411.88
2023-01-07T20:07:34.258Z,100407.66
2023-01-07T20:10:01.189Z,100396.94
2023-01-07T20:12:27.578Z,100392.00
2023-01-07T20:14:54.119Z,100386.69
2023-01-07T20:17:20.630Z,100385.53
2023-01-07T20:19:47.138Z,100391.94
2023-01-07T20:22:13.545Z,100374.56
2023-01-07T20:24:40.109Z,100377.59
2023-01-07T20:27:06.794Z,100373.78
2023-01-07T20:29:33.870Z,100380.94
2023-01-07T20:32:00.301Z,100370.72
2023-01-07T20:34:26.885Z,100363.91
2023-01-07T20:36:53.810Z,100354.38
2023-01-07T20:39:20.395Z,100354.38
2023-01-07T20:41:46.789Z,100352.88
2023-01-07T20:44:13.221Z,100349.53
2023-01-07T20:46:40.616Z,100350.22
2023-01-07T20:49:08.053Z,100346.50
2023-01-07T20:51:34.487Z,100353.69
2023-01-07T20:54:00.945Z,100358.53
2023-01-07T20:56:31.853Z,100364.56
2023-01-07T20:59:00.204Z,100378.25
2023-01-07T21:01:27.123Z,100385.81
2023-01-07T21:03:53.679Z,100379.75
2023-01-07T21:06:20.971Z,100376.31
2023-01-07T21:08:48.341Z,100384.19
2023-01-07T21:11:16.808Z,100382.63
2023-01-07T21:13:43.455Z,100381.16
2023-01-07T21:16:10.125Z,100379.63
2023-01-07T21:18:36.628Z,100381.03
2023-01-07T21:21:11.863Z,100386.31
2023-01-07T21:23:38.317Z,100384.03
2023-01-07T21:26:05.778Z,100372.94
2023-01-07T21:28:33.029Z,100372.50
2023-01-07T21:31:08.940Z,100366.38
2023-01-07T21:33:36.066Z,100353.47
2023-01-07T21:36:11.165Z,100345.13
2023-01-07T21:38:37.913Z,100335.84
2023-01-07T21:41:15.577Z,100340.06
2023-01-07T21:43:42.360Z,100335.16
2023-01-07T21:46:09.192Z,100335.88
2023-01-07T21:48:37.251Z,100330.72
2023-01-07T21:51:06.039Z,100330.66
2023-01-07T21:53:35.680Z,100326.88
2023-01-07T21:56:07.440Z,100335.16
2023-01-07T21:58:35.179Z,100335.09
2023-01-07T22:01:01.968Z,100340.94
2023-01-07T22:03:29.485Z,100339.50
2023-01-07T22:06:05.337Z,100338.72
2023-01-07T22:08:31.958Z,100335.00
2023-01-07T22:10:58.362Z,100333.81
2023-01-07T22:13:24.897Z,100327.72
2023-01-07T22:15:51.306Z,100317.88
2023-01-07T22:18:17.914Z,100314.47
2023-01-07T22:20:44.521Z,100315.72
2023-01-07T22:23:17.197Z,100313.06
2023-01-07T22:25:43.662Z,100319.94
2023-01-07T22:28:10.623Z,100315.50
2023-01-07T22:30:38.427Z,100313.97
2023-01-07T22:33:04.864Z,100316.50
2023-01-07T22:35:31.413Z,100309.28
2023-01-07T22:37:57.875Z,100313.91
2023-01-07T22:40:24.265Z,100300.13
2023-01-07T22:42:55.940Z,100297.00
2023-01-07T22:45:42.423Z,100294.34
2023-01-07T22:48:11.477Z,100299.16
2023-01-07T22:50:38.934Z,100293.81
2023-01-07T22:53:05.844Z,100296.09
2023-01-07T22:55:32.924Z,100301.72
2023-01-07T22:58:00.216Z,100298.25
2023-01-07T23:00:51.807Z,100292.94
2023-01-07T23:03:22.868Z,100292.19
2023-01-07T23:05:50.056Z,100285.38
2023-01-07T23:08:17.031Z,100279.66
2023-01-07T23:10:43.545Z,100285.72
2023-01-07T23:13:10.416Z,100274.34
2023-01-07T23:15:38.521Z,100283.00
2023-01-07T23:18:05.990Z,100270.09
2023-01-07T23:20:33.466Z,100267.72
2023-01-07T23:23:00.814Z,100257.00
2023-01-07T23:25:27.473Z,100261.13
2023-01-07T23:27:53.895Z,100261.56
2023-01-07T23:30:20.354Z,100263.47
2023-01-07T23:32:46.891Z,100258.53
2023-01-07T23:35:13.901Z,100266.94
2023-01-07T23:37:40.503Z,100269.59
2023-01-07T23:40:08.210Z,100262.13
2023-01-07T23:42:35.154Z,100264.63
2023-01-07T23:45:02.291Z,100265.38
2023-01-07T23:47:28.743Z,100263.78
2023-01-07T23:49:55.166Z,100259.28
2023-01-07T23:52:21.575Z,100254.66
2023-01-07T23:54:47.977Z,100239.56
2023-01-07T23:57:14.503Z,100241.78
2023-01-07T23:59:42.071Z,100235.25
